Time;durP1;ratioP1;P1;durP2;ratioP2;P2;SDS_P1;SDS_P2;PMS_P1;PMS_P2;Temp;Humidity;BMP_temperature;BMP_pressure;BME280_temperature;BME280_humidity;BME280_pressure;Samples;Min_cycle;Max_cycle;Signal;HPM_P1;HPM_P2
2022/10/23 00:01:25;;;;;;;23.70;14.83;;;;;;;-141.28;100.00;49290.09;5133010;27;20222;-74
2022/10/23 00:03:53;;;;;;;26.37;14.97;;;;;;;-141.28;100.00;49299.91;5135061;27;20206;-76
2022/10/23 00:06:21;;;;;;;29.20;15.50;;;;;;;-141.28;100.00;49309.72;5134598;27;20206;-80
2022/10/23 00:08:50;;;;;;;27.37;14.97;;;;;;;-141.28;100.00;49282.25;5134763;27;20198;-79
2022/10/23 00:11:19;;;;;;;23.53;13.97;;;;;;;-141.28;100.00;49278.31;5134487;27;20684;-79
2022/10/23 00:13:49;;;;;;;23.97;14.47;;;;;;;-141.28;100.00;49284.22;5134064;27;20665;-75
2022/10/23 00:16:16;;;;;;;23.57;15.23;;;;;;;-141.28;100.00;49276.38;5134397;27;20202;-76
2022/10/23 00:18:44;;;;;;;21.53;14.50;;;;;;;-141.28;100.00;49309.72;5133996;27;20270;-76
2022/10/23 00:21:15;;;;;;;23.37;14.80;;;;;;;-141.28;100.00;49321.50;5134525;27;20202;-77
2022/10/23 00:23:43;;;;;;;26.17;13.17;;;;;;;-141.28;100.00;49315.59;5134162;27;20245;-75
2022/10/23 00:26:14;;;;;;;22.57;14.17;;;;;;;-141.28;100.00;49305.78;5133936;27;20190;-75
2022/10/23 00:28:41;;;;;;;30.23;13.83;;;;;;;-141.28;100.00;49315.59;5134071;27;20202;-76
2022/10/23 00:31:08;;;;;;;28.90;13.83;;;;;;;-141.28;100.00;49305.78;5134041;27;20263;-76
2022/10/23 00:33:37;;;;;;;27.23;13.40;;;;;;;-141.28;100.00;49305.78;5134988;27;20261;-78
2022/10/23 00:36:06;;;;;;;21.40;14.07;;;;;;;-141.28;100.00;49315.59;5124855;27;20263;-77
2022/10/23 00:38:33;;;;;;;26.27;15.13;;;;;;;-141.28;100.00;49305.78;5130884;27;20222;-78
2022/10/23 00:41:00;;;;;;;23.80;14.63;;;;;;;-141.28;100.00;49309.72;5122819;27;20195;-76
2022/10/23 00:43:30;;;;;;;21.27;15.07;;;;;;;-141.28;100.00;49301.88;5131411;27;20202;-76
2022/10/23 00:45:58;;;;;;;27.43;14.23;;;;;;;-141.28;100.00;49254.78;5133603;27;20202;-78
2022/10/23 00:48:26;;;;;;;23.37;14.20;;;;;;;-141.28;100.00;49262.63;5133200;27;20206;-76
2022/10/23 00:50:55;;;;;;;23.13;14.37;;;;;;;-141.28;100.00;49243.00;5121493;27;20203;-77
2022/10/23 00:53:23;;;;;;;23.77;14.10;;;;;;;-141.28;100.00;49262.63;5133001;27;20247;-77
2022/10/23 00:55:54;;;;;;;25.67;14.40;;;;;;;-141.28;100.00;49258.69;5133728;27;20202;-76
2022/10/23 00:58:22;;;;;;;21.13;13.07;;;;;;;-141.28;100.00;49266.56;5133347;27;20226;-76
2022/10/23 01:00:52;;;;;;;28.30;13.70;;;;;;;-141.28;100.00;49295.97;5133352;27;20279;-77
2022/10/23 01:03:21;;;;;;;31.47;16.77;;;;;;;-141.28;100.00;49305.78;5133519;27;20201;-76
2022/10/23 01:05:52;;;;;;;37.70;21.20;;;;;;;-141.28;100.00;49290.09;5133361;27;20206;-76
2022/10/23 01:08:26;;;;;;;41.90;19.17;;;;;;;-141.28;100.00;49313.66;5133313;27;20250;-79
2022/10/23 01:11:01;;;;;;;37.77;19.20;;;;;;;-141.28;100.00;49319.53;5132686;27;20257;-79
2022/10/23 01:13:38;;;;;;;33.20;17.97;;;;;;;-141.28;100.00;49317.56;5133472;27;20624;-76
2022/10/23 01:16:13;;;;;;;40.30;17.23;;;;;;;-141.28;100.00;49335.22;5132853;27;20206;-79
2022/10/23 01:18:44;;;;;;;28.93;16.33;;;;;;;-141.28;100.00;49325.41;5132806;27;20222;-76
2022/10/23 01:21:17;;;;;;;25.87;16.37;;;;;;;-141.28;100.00;49313.66;5132999;27;20669;-76
2022/10/23 01:24:07;;;;;;;27.53;16.53;;;;;;;-141.28;100.00;49321.50;5132527;27;20210;-77
2022/10/23 01:26:46;;;;;;;24.47;14.90;;;;;;;-141.28;100.00;49329.34;5133072;27;20205;-77
2022/10/23 01:29:21;;;;;;;29.50;16.40;;;;;;;-141.28;100.00;49329.34;5132932;27;20254;-75
2022/10/23 01:31:53;;;;;;;28.73;16.67;;;;;;;-141.28;100.00;49258.69;5132770;27;20469;-76
2022/10/23 01:34:26;;;;;;;26.20;16.33;;;;;;;-141.28;100.00;49319.53;5132916;27;20573;-77
2022/10/23 01:36:54;;;;;;;32.30;16.70;;;;;;;-141.28;100.00;49313.66;5120022;27;20234;-76
2022/10/23 01:39:27;;;;;;;38.73;15.33;;;;;;;-141.28;100.00;49325.41;5132830;27;20836;-75
2022/10/23 01:41:58;;;;;;;27.73;16.47;;;;;;;-141.28;100.00;49307.75;5132429;27;20647;-79
2022/10/23 01:44:32;;;;;;;30.60;17.20;;;;;;;-141.28;100.00;49333.25;5114834;27;20202;-77
2022/10/23 01:47:00;;;;;;;26.73;16.13;;;;;;;-141.28;100.00;49317.56;5132835;27;20504;-77
2022/10/23 01:49:28;;;;;;;30.13;17.43;;;;;;;-141.28;100.00;49354.84;5133019;27;20444;-76
2022/10/23 01:51:59;;;;;;;30.03;16.93;;;;;;;-141.28;100.00;49345.03;5123607;28;20458;-75
2022/10/23 01:54:31;;;;;;;26.57;16.77;;;;;;;-141.28;100.00;49372.50;5124106;28;20747;-79
2022/10/23 01:57:00;;;;;;;28.30;17.57;;;;;;;-141.28;100.00;49348.97;5129145;28;20448;-78
2022/10/23 01:59:34;;;;;;;25.63;16.03;;;;;;;-141.28;100.00;49392.13;5135450;27;20278;-77
2022/10/23 02:02:03;;;;;;;30.67;15.70;;;;;;;-141.28;100.00;49398.03;5137119;27;20306;-80
2022/10/23 02:04:33;;;;;;;22.90;14.83;;;;;;;-141.28;100.00;49403.91;5136721;27;20653;-75
2022/10/23 02:07:01;;;;;;;26.87;15.90;;;;;;;-141.28;100.00;49419.59;5136497;27;20737;-76
2022/10/23 02:09:28;;;;;;;28.30;15.50;;;;;;;-141.28;100.00;49435.31;5136916;27;20592;-76
2022/10/23 02:12:00;;;;;;;23.70;14.90;;;;;;;-141.28;100.00;49431.38;5136544;27;20282;-76
2022/10/23 02:14:37;;;;;;;31.07;15.17;;;;;;;-141.28;100.00;49443.16;5124335;27;20206;-79
2022/10/23 02:17:15;;;;;;;25.70;15.77;;;;;;;-141.28;100.00;49441.19;5136835;27;20214;-77
2022/10/23 02:19:46;;;;;;;30.70;14.83;;;;;;;-141.28;100.00;49447.06;5136449;27;20261;-79
2022/10/23 02:22:19;;;;;;;25.53;14.80;;;;;;;-141.28;100.00;49462.78;5136674;27;20201;-80
2022/10/23 02:24:52;;;;;;;22.23;14.97;;;;;;;-141.28;100.00;49464.72;5136508;27;20205;-76
2022/10/23 02:27:23;;;;;;;26.90;15.43;;;;;;;-141.28;100.00;49458.84;5136695;27;20210;-79
2022/10/23 02:29:56;;;;;;;28.80;14.27;;;;;;;-141.28;100.00;49468.66;5136387;27;20218;-75
2022/10/23 02:32:26;;;;;;;25.83;14.83;;;;;;;-141.28;100.00;49474.53;5125024;27;20251;-76
2022/10/23 02:34:54;;;;;;;29.30;15.87;;;;;;;-141.28;100.00;49470.63;5135896;27;20639;-75
2022/10/23 02:37:21;;;;;;;25.33;13.77;;;;;;;-141.28;100.00;49472.59;5123478;27;20610;-78
2022/10/23 02:39:49;;;;;;;25.53;14.60;;;;;;;-141.28;100.00;49478.47;5136022;27;20282;-76
2022/10/23 02:42:21;;;;;;;22.67;14.67;;;;;;;-141.28;100.00;49505.94;5136192;27;20661;-75
2022/10/23 02:44:57;;;;;;;27.07;16.03;;;;;;;-141.28;100.00;49502.03;5136153;27;20598;-76
2022/10/23 02:47:36;;;;;;;25.10;16.00;;;;;;;-141.28;100.00;49478.47;5135939;27;20197;-76
2022/10/23 02:50:08;;;;;;;28.57;15.53;;;;;;;-141.28;100.00;49439.22;5135804;27;20200;-76
2022/10/23 02:52:43;;;;;;;28.33;16.03;;;;;;;-141.28;100.00;49454.94;5135667;27;20636;-78
2022/10/23 02:55:22;;;;;;;25.93;15.50;;;;;;;-141.28;100.00;49454.94;5135368;27;20682;-76
2022/10/23 02:57:55;;;;;;;24.60;16.40;;;;;;;-141.28;100.00;49451.00;5135791;27;20656;-79
2022/10/23 03:00:23;;;;;;;33.80;16.30;;;;;;;-141.28;100.00;49458.84;5135540;27;20321;-76
2022/10/23 03:02:56;;;;;;;23.03;14.53;;;;;;;-141.28;100.00;49447.06;5135775;27;20255;-80
2022/10/23 03:05:27;;;;;;;24.90;15.97;;;;;;;-141.28;100.00;49462.78;5135380;27;20213;-77
2022/10/23 03:07:54;;;;;;;38.80;16.50;;;;;;;-141.28;100.00;49445.13;5135682;27;20198;-80
2022/10/23 03:10:22;;;;;;;29.40;16.47;;;;;;;-141.28;100.00;49454.94;5136714;27;20198;-77
2022/10/23 03:12:48;;;;;;;29.63;17.13;;;;;;;-141.28;100.00;49439.22;5136154;27;20688;-77
2022/10/23 03:15:16;;;;;;;29.67;16.73;;;;;;;-141.28;100.00;49443.16;5137498;27;20206;-79
2022/10/23 03:17:44;;;;;;;30.27;16.77;;;;;;;-141.28;100.00;49409.78;5138046;27;20210;-76
2022/10/23 03:20:11;;;;;;;29.47;17.13;;;;;;;-141.28;100.00;49415.69;5137480;27;20234;-76
2022/10/23 03:22:39;;;;;;;30.83;17.07;;;;;;;-141.28;100.00;49415.69;5139323;27;20225;-75
2022/10/23 03:25:07;;;;;;;29.23;17.23;;;;;;;-141.28;100.00;49392.13;5155068;27;20231;-76
2022/10/23 03:27:34;;;;;;;31.40;16.77;;;;;;;-141.28;100.00;49370.53;5159394;27;20243;-75
2022/10/23 03:30:00;;;;;;;29.77;16.73;;;;;;;-141.28;100.00;49352.88;5156952;27;20178;-74
2022/10/23 03:32:28;;;;;;;26.87;16.17;;;;;;;-141.28;100.00;49360.75;5141972;27;20182;-75
2022/10/23 03:34:56;;;;;;;35.43;16.17;;;;;;;-141.28;100.00;49380.34;5140089;27;20205;-76
2022/10/23 03:37:24;;;;;;;31.93;16.03;;;;;;;-141.28;100.00;49396.06;5122823;27;20202;-76
2022/10/23 03:39:51;;;;;;;25.30;15.70;;;;;;;-141.28;100.00;49392.13;5135765;27;20712;-77
2022/10/23 03:42:18;;;;;;;30.70;14.57;;;;;;;-141.28;100.00;49403.91;5143549;27;20258;-78
2022/10/23 03:44:45;;;;;;;32.27;15.40;;;;;;;-141.28;100.00;49411.75;5134739;27;20202;-77
2022/10/23 03:47:12;;;;;;;29.00;15.10;;;;;;;-141.28;100.00;49415.69;5134721;27;20205;-77
2022/10/23 03:49:39;;;;;;;23.20;14.60;;;;;;;-141.28;100.00;49431.38;5134698;27;20556;-77
2022/10/23 03:52:08;;;;;;;26.50;14.90;;;;;;;-141.28;100.00;49449.03;5134919;27;20251;-75
2022/10/23 03:54:35;;;;;;;29.77;13.63;;;;;;;-141.28;100.00;49470.63;5134520;27;20202;-75
2022/10/23 03:57:02;;;;;;;20.30;13.47;;;;;;;-141.28;100.00;49498.09;5134471;27;20199;-76
2022/10/23 03:59:29;;;;;;;27.47;13.13;;;;;;;-141.28;100.00;49517.72;5134291;27;20232;-76
2022/10/23 04:01:56;;;;;;;24.03;12.37;;;;;;;-141.28;100.00;49547.16;5134664;27;20218;-78
2022/10/23 04:04:23;;;;;;;22.60;12.57;;;;;;;-141.28;100.00;49545.19;5134174;27;20209;-77
2022/10/23 04:06:50;;;;;;;19.37;10.33;;;;;;;-141.28;100.00;49588.34;5121227;27;20197;-77
2022/10/23 04:09:19;;;;;;;22.60;12.13;;;;;;;-141.28;100.00;49607.97;5134246;27;20209;-78
2022/10/23 04:11:46;;;;;;;20.17;11.30;;;;;;;-141.28;100.00;49623.69;5134375;27;20244;-77
2022/10/23 04:14:13;;;;;;;18.77;12.00;;;;;;;-141.28;100.00;49647.22;5134164;27;20209;-78
2022/10/23 04:16:40;;;;;;;20.87;10.63;;;;;;;-141.28;100.00;49670.78;5134594;27;20554;-75
2022/10/23 04:19:07;;;;;;;16.10;10.47;;;;;;;-141.28;100.00;49672.75;5134068;27;20222;-77
2022/10/23 04:21:34;;;;;;;27.00;11.70;;;;;;;-141.28;100.00;49694.31;5133606;27;20203;-76
2022/10/23 04:24:01;;;;;;;22.63;11.97;;;;;;;-141.28;100.00;49698.25;5133663;27;20198;-76
2022/10/23 04:26:30;;;;;;;29.17;11.97;;;;;;;-141.28;100.00;49729.66;5134100;27;20205;-77
2022/10/23 04:28:57;;;;;;;21.27;11.00;;;;;;;-141.28;100.00;49741.44;5136589;27;20722;-81
2022/10/23 04:31:24;;;;;;;19.57;9.87;;;;;;;-141.28;100.00;49745.34;5134296;27;20263;-77
2022/10/23 04:33:51;;;;;;;21.30;9.40;;;;;;;-141.28;100.00;49768.91;5133698;27;20267;-77
2022/10/23 04:36:18;;;;;;;17.70;9.70;;;;;;;-141.28;100.00;49816.00;5122343;27;20203;-75
2022/10/23 04:38:45;;;;;;;21.37;10.10;;;;;;;-141.28;100.00;49851.31;5132476;27;21729;-78
2022/10/23 04:41:12;;;;;;;22.00;10.57;;;;;;;-141.28;100.00;49894.50;5133689;27;20202;-77
2022/10/23 04:43:40;;;;;;;23.63;9.90;;;;;;;-141.28;100.00;49916.09;5133645;27;20198;-76
2022/10/23 04:46:07;;;;;;;24.17;10.40;;;;;;;-141.28;100.00;49933.75;5133892;27;20562;-75
2022/10/23 04:48:34;;;;;;;33.20;10.87;;;;;;;-141.28;100.00;49953.38;5133542;27;20195;-75
2022/10/23 04:51:03;;;;;;;21.73;10.87;;;;;;;-141.28;100.00;49965.16;5133475;27;20206;-75
2022/10/23 04:53:30;;;;;;;24.80;11.67;;;;;;;-141.28;100.00;49957.31;5133435;27;20206;-77
2022/10/23 04:55:58;;;;;;;26.33;12.23;;;;;;;-141.28;100.00;49910.19;5133389;27;20206;-74
2022/10/23 04:58:27;;;;;;;17.57;10.50;;;;;;;-141.28;100.00;49878.81;5133390;27;20581;-74
2022/10/23 05:00:55;;;;;;;28.67;12.53;;;;;;;-141.28;100.00;49886.66;5133436;27;20624;-74
2022/10/23 05:03:24;;;;;;;17.80;9.77;;;;;;;-141.28;100.00;49859.19;5133667;27;20619;-76
2022/10/23 05:05:53;;;;;;;16.07;9.10;;;;;;;-141.28;100.00;49863.09;5133401;27;20209;-78
2022/10/23 05:08:21;;;;;;;17.13;10.33;;;;;;;-141.28;100.00;49874.88;5133147;27;20281;-76
2022/10/23 05:10:48;;;;;;;21.30;9.63;;;;;;;-141.28;100.00;49847.41;5133134;27;20226;-76
2022/10/23 05:13:15;;;;;;;16.73;10.37;;;;;;;-141.28;100.00;49841.50;5133376;27;20293;-79
2022/10/23 05:15:42;;;;;;;18.30;9.90;;;;;;;-141.28;100.00;49851.31;5132910;27;20198;-76
2022/10/23 05:18:16;;;;;;;20.40;9.73;;;;;;;-141.28;100.00;49859.19;5133107;27;20206;-76
2022/10/23 05:20:45;;;;;;;20.27;10.10;;;;;;;-141.28;100.00;49939.63;5132901;27;20278;-79
2022/10/23 05:23:16;;;;;;;18.80;9.90;;;;;;;-141.28;100.00;49992.63;5132777;27;20205;-76
2022/10/23 05:25:43;;;;;;;21.17;9.97;;;;;;;-141.28;100.00;50075.06;5133239;27;20194;-75
2022/10/23 05:28:11;;;;;;;20.40;10.43;;;;;;;-141.28;100.00;50067.22;5132561;27;20204;-76
2022/10/23 05:30:39;;;;;;;20.30;10.83;;;;;;;-141.28;100.00;50149.63;5132685;27;20202;-75
2022/10/23 05:33:06;;;;;;;42.47;10.43;;;;;;;-141.28;100.00;50228.16;5132600;27;20199;-76
2022/10/23 05:35:36;;;;;;;26.40;10.90;;;;;;;-141.28;100.00;50273.28;5129385;27;20275;-76
2022/10/23 05:38:03;;;;;;;25.90;11.20;;;;;;;-141.28;100.00;50220.28;5130697;27;20198;-75
2022/10/23 05:40:30;;;;;;;28.63;11.43;;;;;;;-141.28;100.00;50546.13;5133089;27;20294;-77
2022/10/23 05:42:58;;;;;;;26.70;11.17;;;;;;;-141.28;100.00;50485.28;5132702;27;20599;-77
2022/10/23 05:45:25;;;;;;;24.93;10.97;;;;;;;-141.28;100.00;50261.50;5119705;27;20233;-77
2022/10/23 05:48:25;;;;;;;19.87;10.27;;;;;;;-141.28;100.00;50145.72;5136278;27;20206;-82
2022/10/23 05:50:53;;;;;;;20.07;9.87;;;;;;;-141.28;100.00;49825.81;5132510;27;20202;-75
2022/10/23 05:53:20;;;;;;;24.00;10.13;;;;;;;-141.28;100.00;49737.50;5132873;27;20274;-75
2022/10/23 05:55:47;;;;;;;27.27;10.73;;;;;;;-141.28;100.00;50102.53;5132391;27;20263;-77
2022/10/23 05:58:14;;;;;;;19.07;10.07;;;;;;;-141.28;100.00;50440.13;5132639;28;20210;-77
2022/10/23 06:00:41;;;;;;;20.80;10.30;;;;;;;-141.28;100.00;50475.47;5132357;27;20241;-76
2022/10/23 06:03:08;;;;;;;29.97;11.57;;;;;;;-141.28;100.00;50593.22;5132420;28;20255;-75
2022/10/23 06:05:35;;;;;;;15.87;9.93;;;;;;;-141.28;100.00;50491.16;5132673;28;20279;-77
2022/10/23 06:08:04;;;;;;;18.10;9.73;;;;;;;-141.28;100.00;50271.31;5133470;28;20224;-78
2022/10/23 06:10:31;;;;;;;21.53;9.83;;;;;;;-141.28;100.00;50212.44;5131400;28;20213;-78
2022/10/23 06:12:58;;;;;;;22.90;8.43;;;;;;;-141.28;100.00;50192.81;5132839;28;20241;-79
2022/10/23 06:15:26;;;;;;;16.13;8.10;;;;;;;-141.28;100.00;50318.44;5114102;28;20202;-76
2022/10/23 06:17:53;;;;;;;16.07;8.57;;;;;;;-141.28;100.00;50342.00;5132337;28;20220;-79
2022/10/23 06:20:20;;;;;;;20.57;8.63;;;;;;;-141.28;100.00;50275.25;5131653;28;20271;-79
2022/10/23 06:22:47;;;;;;;18.50;7.90;;;;;;;-141.28;100.00;50149.63;5132573;28;20198;-76
2022/10/23 06:25:15;;;;;;;16.70;7.47;;;;;;;-141.28;100.00;50251.69;5131680;28;20254;-77
2022/10/23 06:27:42;;;;;;;14.27;7.20;;;;;;;-141.28;100.00;50224.22;5132295;28;20206;-77
2022/10/23 06:30:11;;;;;;;16.07;7.17;;;;;;;-141.28;100.00;50169.28;5132063;28;20623;-79
2022/10/23 06:32:38;;;;;;;20.50;9.03;;;;;;;-141.28;100.00;50141.78;5132227;28;20198;-79
2022/10/23 06:35:06;;;;;;;15.10;7.87;;;;;;;-141.28;100.00;50183.00;5130576;28;20198;-75
2022/10/23 06:37:34;;;;;;;21.20;7.70;;;;;;;-141.28;100.00;50179.09;5120838;28;20201;-76
2022/10/23 06:40:00;;;;;;;14.30;7.27;;;;;;;-141.28;100.00;50267.41;5131567;28;20284;-77
2022/10/23 06:42:29;;;;;;;19.07;8.07;;;;;;;-141.28;100.00;50404.81;5132971;28;20198;-78
2022/10/23 06:44:57;;;;;;;18.87;7.70;;;;;;;-141.28;100.00;50251.69;5132158;27;20198;-76
2022/10/23 06:47:24;;;;;;;16.87;6.70;;;;;;;-141.28;100.00;50200.66;5136469;27;20198;-79
2022/10/23 06:49:50;;;;;;;13.10;6.83;;;;;;;-141.28;100.00;50137.88;5136301;27;20202;-76
2022/10/23 06:52:18;;;;;;;12.73;6.40;;;;;;;-141.28;100.00;50128.06;5136057;27;20202;-77
2022/10/23 06:54:45;;;;;;;12.10;5.97;;;;;;;-141.28;100.00;50120.19;5135808;27;20194;-78
2022/10/23 06:57:13;;;;;;;14.57;6.07;;;;;;;-141.28;100.00;50147.69;5135539;27;20718;-76
2022/10/23 06:59:42;;;;;;;14.83;5.70;;;;;;;-141.28;100.00;50173.19;5135651;27;20202;-75
2022/10/23 07:02:09;;;;;;;10.07;6.00;;;;;;;-141.28;100.00;50161.41;5135141;27;20228;-76
2022/10/23 07:04:38;;;;;;;10.80;5.60;;;;;;;-141.28;100.00;50202.63;5135485;27;20262;-75
2022/10/23 07:07:06;;;;;;;11.03;5.60;;;;;;;-141.28;100.00;50236.00;5139265;27;20206;-78
2022/10/23 07:09:35;;;;;;;10.37;5.10;;;;;;;-141.28;100.00;50243.84;5135427;27;20209;-78
2022/10/23 07:12:02;;;;;;;12.23;5.00;;;;;;;-141.28;100.00;50212.44;5135583;27;20234;-78
2022/10/23 07:14:31;;;;;;;9.73;5.70;;;;;;;-141.28;100.00;50216.38;5117093;27;20660;-76
2022/10/23 07:17:00;;;;;;;12.63;5.77;;;;;;;-141.28;100.00;50236.00;5134895;27;20245;-80
2022/10/23 07:19:27;;;;;;;16.63;5.60;;;;;;;-141.28;100.00;50145.72;5135534;27;20206;-77
2022/10/23 07:21:53;;;;;;;12.10;5.73;;;;;;;-141.28;100.00;50122.16;5135221;27;20226;-76
2022/10/23 07:24:20;;;;;;;9.57;4.93;;;;;;;-141.28;100.00;50104.50;5134905;27;20206;-77
2022/10/23 07:26:48;;;;;;;11.73;5.23;;;;;;;-141.28;100.00;50153.56;5135518;27;20202;-77
2022/10/23 07:29:15;;;;;;;15.93;6.53;;;;;;;-141.28;100.00;50196.75;5134862;27;20214;-77
2022/10/23 07:31:42;;;;;;;10.00;5.93;;;;;;;-141.28;100.00;50377.31;5134926;27;20217;-80
2022/10/23 07:34:11;;;;;;;11.80;5.97;;;;;;;-141.28;100.00;50200.66;5135131;27;20266;-76
2022/10/23 07:36:39;;;;;;;10.37;5.37;;;;;;;-141.28;100.00;50381.25;5122869;27;20528;-78
2022/10/23 07:39:05;;;;;;;9.37;5.53;;;;;;;-141.28;100.00;50418.53;5135232;27;20205;-77
2022/10/23 07:41:33;;;;;;;14.07;5.37;;;;;;;-141.28;100.00;50385.16;5134480;27;20222;-78
2022/10/23 07:44:00;;;;;;;10.20;4.73;;;;;;;-141.28;100.00;50375.34;5135114;27;20206;-76
2022/10/23 07:46:27;;;;;;;9.93;5.30;;;;;;;-141.28;100.00;50296.84;5134683;27;20200;-75
2022/10/23 07:48:54;;;;;;;9.27;5.60;;;;;;;-141.28;100.00;50263.47;5134928;27;20213;-78
2022/10/23 07:51:22;;;;;;;8.10;4.87;;;;;;;-141.28;100.00;50202.63;5134598;27;20202;-77
2022/10/23 07:53:49;;;;;;;9.33;5.03;;;;;;;-141.28;100.00;50202.63;5134764;27;20291;-77
2022/10/23 07:56:18;;;;;;;10.13;5.03;;;;;;;-141.28;100.00;50118.25;5134613;27;20202;-77
2022/10/23 07:58:45;;;;;;;8.07;4.67;;;;;;;-141.28;100.00;50071.13;5134726;27;20259;-80
2022/10/23 08:01:18;;;;;;;9.37;5.10;;;;;;;-141.28;100.00;49967.13;5134015;27;20226;-78
2022/10/23 08:03:45;;;;;;;8.60;5.10;;;;;;;-141.28;100.00;50024.03;5135001;27;20271;-74
2022/10/23 08:06:12;;;;;;;8.20;5.10;;;;;;;-141.28;100.00;49914.13;5134554;27;20202;-75
2022/10/23 08:08:40;;;;;;;7.37;4.27;;;;;;;-141.28;100.00;49796.38;5134895;27;20254;-76
2022/10/23 08:11:08;;;;;;;10.30;4.50;;;;;;;-141.28;100.00;49576.59;5134453;27;20230;-77
2022/10/23 08:13:35;;;;;;;9.73;4.20;;;;;;;-141.28;100.00;49776.75;5135107;27;20206;-76
2022/10/23 08:16:02;;;;;;;12.03;4.60;;;;;;;-141.28;100.00;49768.91;5139972;27;20210;-79
2022/10/23 08:18:29;;;;;;;12.07;4.63;;;;;;;-141.28;100.00;50043.66;5141491;27;20648;-75
2022/10/23 08:21:03;;;;;;;8.67;5.00;;;;;;;-141.28;100.00;50092.72;5139147;27;20225;-79
2022/10/23 08:23:31;;;;;;;12.03;4.57;;;;;;;-141.28;100.00;50110.38;5139945;27;20668;-76
2022/10/23 08:26:02;;;;;;;8.67;4.50;;;;;;;-141.28;100.00;50055.44;5135638;27;20199;-77
2022/10/23 08:28:29;;;;;;;9.37;4.97;;;;;;;-141.28;100.00;49992.63;5134197;27;20202;-76
2022/10/23 08:30:56;;;;;;;24.40;4.77;;;;;;;-141.28;100.00;49904.31;5134118;27;20198;-80
2022/10/23 08:33:24;;;;;;;16.27;4.80;;;;;;;-141.28;100.00;49908.25;5133792;27;20570;-76
2022/10/23 08:35:51;;;;;;;14.00;4.50;;;;;;;-141.28;100.00;49886.66;5126627;27;20195;-78
2022/10/23 08:38:18;;;;;;;8.23;4.00;;;;;;;-141.28;100.00;49945.53;5128447;27;20262;-78
2022/10/23 08:40:46;;;;;;;11.63;4.07;;;;;;;-141.28;100.00;50027.97;5133793;27;20773;-76
2022/10/23 08:43:21;;;;;;;17.37;4.40;;;;;;;-141.28;100.00;49961.22;5133683;27;20202;-76
2022/10/23 08:45:52;;;;;;;14.47;3.90;;;;;;;-141.28;100.00;50389.09;5134027;27;20198;-79
2022/10/23 08:48:26;;;;;;;10.20;4.13;;;;;;;-141.28;100.00;49882.72;5133636;27;20201;-78
2022/10/23 08:50:58;;;;;;;9.90;4.07;;;;;;;-141.28;100.00;49961.22;5134023;27;20259;-76
2022/10/23 08:53:29;;;;;;;12.87;4.27;;;;;;;-141.28;100.00;49859.19;5138412;27;20623;-77
2022/10/23 08:56:01;;;;;;;11.57;4.47;;;;;;;-141.28;100.00;49812.06;5134658;27;20642;-76
2022/10/23 08:58:35;;;;;;;8.17;4.10;;;;;;;-141.28;100.00;49737.50;5133888;27;20627;-76
2022/10/23 09:01:11;;;;;;;9.93;4.60;;;;;;;-141.28;100.00;49727.69;5132709;27;20230;-76
2022/10/23 09:03:38;;;;;;;17.50;4.80;;;;;;;-141.28;100.00;49733.56;5133197;27;20198;-75
2022/10/23 09:06:15;;;;;;;7.43;4.30;;;;;;;-141.28;100.00;49694.31;5132920;27;20198;-75
2022/10/23 09:08:52;;;;;;;6.00;4.03;;;;;;;-141.28;100.00;49659.00;5133307;27;20202;-76
2022/10/23 09:11:27;;;;;;;7.23;5.00;;;;;;;-141.28;100.00;49529.50;5133437;27;20241;-77
2022/10/23 09:14:12;;;;;;;9.40;4.77;;;;;;;-141.28;100.00;49484.34;5132969;27;20198;-76
2022/10/23 09:16:49;;;;;;;11.37;4.20;;;;;;;-141.28;100.00;49403.91;5133420;27;20216;-80
2022/10/23 09:19:18;;;;;;;8.47;4.53;;;;;;;-141.28;100.00;49396.06;5132849;27;20206;-78
2022/10/23 09:21:48;;;;;;;9.70;5.47;;;;;;;-141.28;100.00;49317.56;5133519;27;20236;-77
2022/10/23 09:24:17;;;;;;;7.30;4.40;;;;;;;-141.28;100.00;49339.16;5134942;27;20733;-76
2022/10/23 09:26:47;;;;;;;7.60;4.17;;;;;;;-141.28;100.00;49321.50;5137495;27;20271;-76
2022/10/23 09:29:23;;;;;;;8.93;3.87;;;;;;;-141.28;100.00;49282.25;5123954;27;20285;-76
2022/10/23 09:31:51;;;;;;;9.80;4.40;;;;;;;-141.28;100.00;49317.56;5136393;27;20286;-75
2022/10/23 09:34:22;;;;;;;4.93;3.60;;;;;;;-141.28;100.00;49311.69;5135079;27;20198;-76
2022/10/23 09:36:51;;;;;;;8.40;3.47;;;;;;;-141.28;100.00;49278.31;5120867;27;20194;-77
2022/10/23 09:39:27;;;;;;;9.83;4.07;;;;;;;-141.28;100.00;49317.56;5133042;27;20217;-75
2022/10/23 09:41:55;;;;;;;9.47;3.33;;;;;;;-141.28;100.00;49227.31;5134287;27;20255;-75
2022/10/23 09:44:26;;;;;;;11.27;3.93;;;;;;;-141.28;100.00;49248.88;5134997;27;20621;-76
2022/10/23 09:46:55;;;;;;;12.80;4.10;;;;;;;-141.28;100.00;49254.78;5132644;27;20194;-78
2022/10/23 09:49:25;;;;;;;7.47;3.43;;;;;;;-141.28;100.00;49211.59;5132790;27;20197;-76
2022/10/23 09:51:59;;;;;;;9.97;3.77;;;;;;;-141.28;100.00;49154.72;5133170;27;20300;-78
2022/10/23 09:54:27;;;;;;;6.47;3.00;;;;;;;-141.28;100.00;49211.59;5133206;27;20202;-79
2022/10/23 09:56:56;;;;;;;6.03;2.80;;;;;;;-141.28;100.00;49176.28;5132899;27;20206;-76
2022/10/23 09:59:28;;;;;;;5.20;2.60;;;;;;;-141.28;100.00;49076.22;5132649;28;20206;-75
2022/10/23 10:01:57;;;;;;;7.80;3.03;;;;;;;-141.28;100.00;49101.72;5132720;28;20225;-76
2022/10/23 10:04:36;;;;;;;13.20;3.23;;;;;;;-141.28;100.00;49062.50;5132577;28;20236;-80
2022/10/23 10:07:05;;;;;;;3.73;2.57;;;;;;;-141.28;100.00;49115.47;5133247;28;20226;-78
2022/10/23 10:09:33;;;;;;;7.27;2.90;;;;;;;-141.28;100.00;49058.56;5132913;28;20608;-79
2022/10/23 10:12:18;;;;;;;7.97;3.40;;;;;;;-141.28;100.00;49086.03;5132293;28;20234;-77
2022/10/23 10:15:16;;;;;;;11.13;2.83;;;;;;;-141.28;100.00;49080.16;5132521;28;20198;-78
2022/10/23 10:17:54;;;;;;;6.77;2.60;;;;;;;-141.28;100.00;49078.19;5132814;28;20277;-77
2022/10/23 10:20:49;;;;;;;4.17;2.50;;;;;;;-141.28;100.00;49060.53;5133569;27;20215;-78
2022/10/23 10:23:25;;;;;;;4.73;2.67;;;;;;;-141.28;100.00;49062.50;5131876;27;20204;-78
2022/10/23 10:26:02;;;;;;;3.90;2.60;;;;;;;-141.28;100.00;49050.72;5137654;27;20262;-78
2022/10/23 10:28:42;;;;;;;6.50;2.57;;;;;;;-141.28;100.00;49013.44;5137597;27;20683;-75
2022/10/23 10:31:19;;;;;;;4.33;2.73;;;;;;;-141.28;100.00;49017.38;5137178;27;20274;-78
2022/10/23 10:33:54;;;;;;;7.37;2.70;;;;;;;-141.28;98.06;49046.78;5137691;27;20212;-77
2022/10/23 10:36:39;;;;;;;6.90;3.00;;;;;;;-141.28;97.74;49035.03;5126659;27;20214;-77
2022/10/23 10:39:16;;;;;;;7.17;2.67;;;;;;;-141.28;98.06;49031.09;5131811;27;20208;-78
2022/10/23 10:41:54;;;;;;;3.13;2.40;;;;;;;-141.28;90.64;49031.09;5157049;27;20218;-74
2022/10/23 10:44:42;;;;;;;8.43;2.53;;;;;;;-141.28;88.84;49038.94;5156932;27;20210;-75
2022/10/23 10:47:18;;;;;;;6.80;2.87;;;;;;;-141.28;92.87;49038.94;5159091;27;20285;-75
2022/10/23 10:49:55;;;;;;;7.23;2.63;;;;;;;-141.28;97.00;49093.88;5149427;27;20207;-78
2022/10/23 10:52:31;;;;;;;6.40;2.70;;;;;;;-141.28;94.45;49066.41;5146093;27;20198;-76
2022/10/23 10:55:08;;;;;;;3.23;2.60;;;;;;;-141.28;93.67;49074.25;5147555;27;20197;-76
2022/10/23 10:57:39;;;;;;;2.60;2.40;;;;;;;-141.28;91.34;49035.03;5140865;27;20196;-77
2022/10/23 11:00:14;;;;;;;5.40;2.87;;;;;;;-141.28;88.56;48897.69;5124538;27;20273;-77
2022/10/23 11:02:46;;;;;;;4.90;2.70;;;;;;;-141.28;86.77;48980.09;5137760;27;20237;-80
2022/10/23 11:05:22;;;;;;;9.57;3.07;;;;;;;-141.28;88.61;49203.75;5136816;27;20210;-75
2022/10/23 11:07:55;;;;;;;5.43;2.70;;;;;;;-141.28;87.89;49015.41;5136243;27;20704;-75
2022/10/23 11:10:23;;;;;;;4.23;2.97;;;;;;;-141.28;86.15;49025.22;5136526;27;20222;-77
2022/10/23 11:12:51;;;;;;;4.27;2.60;;;;;;;-141.28;85.33;48999.72;5135503;27;20278;-76